Time;durP1;ratioP1;P1;durP2;ratioP2;P2;SDS_P1;SDS_P2;PMS_P1;PMS_P2;Temp;Humidity;BMP_temperature;BMP_pressure;BME280_temperature;BME280_humidity;BME280_pressure;Samples;Min_cycle;Max_cycle;Signal;HPM_P1;HPM_P2
2022/07/27 00:00:49;;;;;;;2.55;0.70;;;15.90;99.90;;;;;;12418191;28;20074;-39
2022/07/27 00:06:51;;;;;;;3.30;0.75;;;15.90;99.90;;;;;;12411864;28;20045;-39
2022/07/27 00:12:53;;;;;;;2.55;0.88;;;15.90;99.90;;;;;;12426509;28;20501;-34
2022/07/27 00:18:55;;;;;;;2.33;0.73;;;16.00;99.90;;;;;;12415984;28;20402;-34
2022/07/27 00:24:57;;;;;;;4.95;0.90;;;15.90;99.90;;;;;;12414890;28;20526;-39
2022/07/27 00:30:58;;;;;;;6.22;0.98;;;15.80;99.90;;;;;;12418591;28;20062;-35
2022/07/27 00:37:00;;;;;;;4.15;1.25;;;15.90;99.90;;;;;;12415978;28;20093;-35
2022/07/27 00:43:03;;;;;;;4.38;0.73;;;15.90;99.90;;;;;;12428199;28;20072;-39
2022/07/27 00:49:05;;;;;;;3.63;1.10;;;15.90;99.90;;;;;;12410238;28;20054;-39
2022/07/27 00:55:07;;;;;;;6.13;0.90;;;15.70;99.90;;;;;;12417887;28;20151;-39
2022/07/27 01:01:09;;;;;;;5.60;0.93;;;15.70;99.90;;;;;;12420604;28;20197;-35
2022/07/27 01:07:11;;;;;;;3.53;0.88;;;15.70;99.90;;;;;;12417626;28;20050;-34
2022/07/27 01:13:15;;;;;;;3.80;1.25;;;15.70;99.90;;;;;;12414059;28;20119;-39
2022/07/27 01:19:17;;;;;;;6.28;1.00;;;15.80;99.90;;;;;;12409927;28;20189;-34
2022/07/27 01:25:19;;;;;;;3.50;0.85;;;15.70;99.90;;;;;;12418066;28;20069;-39
2022/07/27 01:31:20;;;;;;;2.70;0.88;;;15.70;99.90;;;;;;12419089;28;20192;-38
2022/07/27 01:37:22;;;;;;;4.63;0.93;;;15.60;99.90;;;;;;12415084;28;20444;-36
2022/07/27 01:43:24;;;;;;;3.25;0.90;;;15.50;99.90;;;;;;12420325;28;20152;-40
2022/07/27 01:49:26;;;;;;;3.58;0.80;;;15.40;99.90;;;;;;12419533;28;20054;-39
2022/07/27 01:55:28;;;;;;;4.50;0.98;;;15.40;99.90;;;;;;12406928;28;20052;-35
2022/07/27 02:01:39;;;;;;;6.15;0.82;;;15.10;99.90;;;;;;12427468;28;20125;-40
2022/07/27 02:07:41;;;;;;;4.15;0.90;;;15.00;99.90;;;;;;12415515;28;20472;-35
2022/07/27 02:13:44;;;;;;;2.60;0.93;;;15.00;99.90;;;;;;12407594;28;20050;-39
2022/07/27 02:19:46;;;;;;;6.20;0.82;;;15.10;99.90;;;;;;12415420;28;20157;-39
2022/07/27 02:25:47;;;;;;;4.00;1.23;;;15.10;99.90;;;;;;12411545;28;20116;-34
2022/07/27 02:31:49;;;;;;;5.43;1.20;;;15.00;99.90;;;;;;12411020;28;20115;-34
2022/07/27 02:37:51;;;;;;;3.17;0.95;;;15.00;99.90;;;;;;12414562;28;20133;-35
2022/07/27 02:43:53;;;;;;;3.30;1.00;;;15.10;99.90;;;;;;12407278;28;20054;-34
2022/07/27 02:49:54;;;;;;;4.63;1.08;;;15.10;99.90;;;;;;12405489;28;20139;-34
2022/07/27 02:55:57;;;;;;;2.40;0.70;;;15.20;99.90;;;;;;12426574;28;20050;-34
2022/07/27 03:01:58;;;;;;;4.40;1.13;;;15.20;99.90;;;;;;12436008;28;20552;-35
2022/07/27 03:08:00;;;;;;;4.25;1.02;;;15.10;99.90;;;;;;12413132;28;20065;-40
2022/07/27 03:14:03;;;;;;;6.25;1.20;;;15.10;99.90;;;;;;12414162;28;20520;-40
2022/07/27 03:20:05;;;;;;;6.85;1.00;;;15.00;99.90;;;;;;12423018;28;20047;-39
2022/07/27 03:26:11;;;;;;;4.03;1.13;;;14.90;99.90;;;;;;12370890;28;20054;-40
2022/07/27 03:32:13;;;;;;;4.20;0.90;;;14.80;99.90;;;;;;12419731;28;20079;-40
2022/07/27 03:38:14;;;;;;;7.50;1.10;;;14.80;99.90;;;;;;12412862;28;20046;-35
2022/07/27 03:44:18;;;;;;;6.60;1.30;;;14.80;99.90;;;;;;12406380;28;20042;-34
2022/07/27 03:50:19;;;;;;;2.08;0.90;;;14.70;99.90;;;;;;12419077;28;20123;-34
2022/07/27 03:56:21;;;;;;;6.57;1.67;;;14.70;99.90;;;;;;12425317;28;20133;-40
2022/07/27 04:02:23;;;;;;;3.22;0.90;;;14.60;99.90;;;;;;12413531;28;20058;-35
2022/07/27 04:08:25;;;;;;;3.15;1.00;;;14.60;99.90;;;;;;12422650;28;20461;-34
2022/07/27 04:14:27;;;;;;;6.05;1.40;;;14.70;99.90;;;;;;12409231;28;20046;-34
2022/07/27 04:20:29;;;;;;;3.38;1.00;;;14.70;99.90;;;;;;12427907;28;20095;-40
2022/07/27 04:26:30;;;;;;;8.90;1.20;;;14.60;99.90;;;;;;12412572;28;20089;-39
2022/07/27 04:32:32;;;;;;;4.03;1.20;;;14.60;99.90;;;;;;12410887;28;20088;-39
2022/07/27 04:38:34;;;;;;;8.55;1.30;;;14.60;99.90;;;;;;12428118;28;20080;-39
2022/07/27 04:44:37;;;;;;;7.07;1.30;;;14.60;99.90;;;;;;12413435;28;20544;-40
2022/07/27 04:50:40;;;;;;;2.88;1.00;;;14.60;99.90;;;;;;12410993;28;20162;-34
2022/07/27 04:56:42;;;;;;;3.80;1.45;;;14.60;99.90;;;;;;12413581;28;20046;-40
2022/07/27 05:02:43;;;;;;;6.10;1.30;;;14.60;99.90;;;;;;12422227;28;20114;-40
2022/07/27 05:08:45;;;;;;;2.88;0.80;;;14.40;99.90;;;;;;12432059;28;20490;-35
2022/07/27 05:14:47;;;;;;;5.28;1.13;;;14.40;99.90;;;;;;12411622;28;20108;-39
2022/07/27 05:20:48;;;;;;;4.78;1.20;;;14.50;99.90;;;;;;12412566;28;20061;-40
2022/07/27 05:26:51;;;;;;;6.22;1.30;;;14.20;99.90;;;;;;12422531;28;20053;-39
2022/07/27 05:32:53;;;;;;;4.63;1.42;;;14.10;99.90;;;;;;12420023;28;20494;-40
2022/07/27 05:38:55;;;;;;;3.13;1.00;;;14.20;99.90;;;;;;12409925;28;20054;-40
2022/07/27 05:44:57;;;;;;;4.70;1.33;;;14.30;99.90;;;;;;12417297;28;20046;-35
2022/07/27 05:50:59;;;;;;;5.47;1.60;;;14.40;99.90;;;;;;12406291;28;20055;-39
2022/07/27 05:57:00;;;;;;;5.30;2.03;;;14.50;99.90;;;;;;12417467;28;20471;-39
2022/07/27 06:03:02;;;;;;;5.45;1.38;;;14.40;99.90;;;;;;12416351;28;20042;-34
2022/07/27 06:09:04;;;;;;;4.55;1.20;;;14.30;99.90;;;;;;12414576;28;20062;-34
2022/07/27 06:15:07;;;;;;;6.05;1.30;;;14.60;99.90;;;;;;12408725;28;20047;-40
2022/07/27 06:21:09;;;;;;;5.90;1.33;;;15.00;99.90;;;;;;12424844;28;20043;-39
2022/07/27 06:27:11;;;;;;;10.23;1.48;;;14.80;99.90;;;;;;12416884;28;20058;-39
2022/07/27 06:33:13;;;;;;;4.95;1.40;;;14.90;99.90;;;;;;12420258;28;20510;-35
2022/07/27 06:39:15;;;;;;;4.47;1.20;;;15.10;99.90;;;;;;12423926;28;20061;-35
2022/07/27 06:45:16;;;;;;;5.60;1.05;;;15.20;99.90;;;;;;12418544;28;20042;-35
2022/07/27 06:51:18;;;;;;;6.20;1.10;;;15.30;99.90;;;;;;12421784;28;20104;-39
2022/07/27 06:57:20;;;;;;;6.47;1.17;;;15.30;99.90;;;;;;12434197;28;20069;-41
2022/07/27 07:03:22;;;;;;;6.93;1.20;;;15.30;99.90;;;;;;12420176;28;20042;-34
2022/07/27 07:09:24;;;;;;;5.00;1.08;;;15.60;99.90;;;;;;12421971;28;20054;-41
2022/07/27 07:15:25;;;;;;;6.43;1.77;;;15.60;99.90;;;;;;12411017;28;20062;-39
2022/07/27 07:21:27;;;;;;;7.47;1.33;;;15.60;99.90;;;;;;12425690;28;20509;-39
2022/07/27 07:27:29;;;;;;;4.82;1.10;;;15.80;99.90;;;;;;12427547;28;20051;-35
2022/07/27 07:33:31;;;;;;;6.82;1.27;;;15.90;99.90;;;;;;12420598;28;20539;-35
2022/07/27 07:39:32;;;;;;;5.38;1.15;;;15.90;99.90;;;;;;12439982;28;20042;-35
2022/07/27 07:45:36;;;;;;;5.32;0.90;;;16.00;99.90;;;;;;12415265;28;20129;-38
2022/07/27 07:51:51;;;;;;;4.55;0.85;;;16.00;99.90;;;;;;12426878;28;20062;-38
2022/07/27 07:57:53;;;;;;;5.18;0.80;;;16.10;99.90;;;;;;12406970;28;20435;-38
2022/07/27 08:03:54;;;;;;;4.93;1.30;;;16.20;99.90;;;;;;12420663;28;20050;-36
2022/07/27 08:09:56;;;;;;;3.70;0.90;;;16.20;99.90;;;;;;12412721;28;20409;-40
2022/07/27 08:15:58;;;;;;;5.70;0.60;;;16.00;99.90;;;;;;12421135;28;20045;-40
2022/07/27 08:22:00;;;;;;;7.97;0.93;;;15.90;99.90;;;;;;12414196;28;20058;-35
2022/07/27 08:28:02;;;;;;;4.30;0.73;;;16.30;99.90;;;;;;12418972;28;20049;-40
2022/07/27 08:34:04;;;;;;;2.50;0.70;;;16.50;99.90;;;;;;12423252;28;20558;-40
2022/07/27 08:40:06;;;;;;;6.82;0.90;;;16.50;99.90;;;;;;12424489;28;20049;-35
2022/07/27 08:46:31;;;;;;;6.07;0.90;;;16.50;99.90;;;;;;12370030;28;20046;-39
2022/07/27 08:52:34;;;;;;;2.50;0.73;;;16.40;99.90;;;;;;12429769;28;20046;-35
2022/07/27 08:58:35;;;;;;;5.00;0.70;;;16.20;99.90;;;;;;12426069;28;20099;-39
2022/07/27 09:04:39;;;;;;;2.50;0.60;;;16.50;99.90;;;;;;12420428;28;20515;-40
2022/07/27 09:10:41;;;;;;;4.53;0.90;;;16.80;99.90;;;;;;12414014;28;20084;-35
2022/07/27 09:16:43;;;;;;;5.30;0.82;;;17.00;99.90;;;;;;12415270;28;20152;-35
2022/07/27 09:23:05;;;;;;;4.18;0.90;;;17.20;99.90;;;;;;12411392;28;20510;-35
2022/07/27 09:29:13;;;;;;;4.25;0.80;;;17.10;99.90;;;;;;12423307;28;20103;-35
2022/07/27 09:35:18;;;;;;;3.70;0.75;;;17.10;99.90;;;;;;12425156;28;20057;-35
2022/07/27 09:41:20;;;;;;;2.45;0.77;;;17.10;99.90;;;;;;12431288;28;20057;-39
2022/07/27 09:47:29;;;;;;;2.35;0.80;;;16.90;99.90;;;;;;12411384;28;20517;-35
2022/07/27 09:53:33;;;;;;;5.15;1.10;;;16.80;99.90;;;;;;12420514;28;20512;-35
2022/07/27 09:59:45;;;;;;;2.13;0.63;;;16.70;99.90;;;;;;12430719;28;20077;-41
2022/07/27 10:05:47;;;;;;;4.03;0.77;;;16.80;99.90;;;;;;12431584;28;20476;-35
2022/07/27 10:11:49;;;;;;;4.40;0.95;;;17.00;99.90;;;;;;12442704;28;20096;-40
2022/07/27 10:17:59;;;;;;;2.58;0.65;;;17.00;99.90;;;;;;12439496;28;20407;-35
2022/07/27 10:24:08;;;;;;;1.95;0.65;;;17.20;99.90;;;;;;12415623;28;20046;-35
2022/07/27 10:30:13;;;;;;;4.03;0.95;;;17.50;99.90;;;;;;12435935;28;20053;-39
2022/07/27 10:36:22;;;;;;;6.88;1.35;;;17.40;99.90;;;;;;12436620;28;20564;-35
2022/07/27 10:42:28;;;;;;;4.28;0.88;;;17.20;99.90;;;;;;12427397;28;20058;-41
2022/07/27 10:48:38;;;;;;;3.22;0.82;;;17.10;99.90;;;;;;12420899;28;20090;-35
2022/07/27 10:54:49;;;;;;;5.35;1.00;;;17.10;99.90;;;;;;12423692;28;20054;-39
2022/07/27 11:01:07;;;;;;;4.15;0.70;;;17.30;99.90;;;;;;12419964;28;20383;-35
2022/07/27 11:07:18;;;;;;;3.88;0.98;;;17.40;99.90;;;;;;12421042;28;20141;-34
2022/07/27 11:13:29;;;;;;;4.10;0.63;;;18.00;99.90;;;;;;12423548;28;20077;-35
2022/07/27 11:19:39;;;;;;;1.83;0.70;;;18.40;99.90;;;;;;12417348;28;20111;-41
2022/07/27 11:25:59;;;;;;;2.85;0.95;;;18.70;99.90;;;;;;12439178;28;20046;-39
2022/07/27 11:32:02;;;;;;;2.47;0.70;;;18.70;99.90;;;;;;12410016;28;20482;-35
2022/07/27 11:38:05;;;;;;;7.07;1.02;;;18.50;99.90;;;;;;12413706;28;20084;-39
2022/07/27 11:44:16;;;;;;;2.97;0.80;;;18.30;99.90;;;;;;12424244;28;20042;-40
2022/07/27 11:50:17;;;;;;;5.25;1.10;;;18.20;99.90;;;;;;12428087;28;20085;-35
2022/07/27 11:56:25;;;;;;;5.80;1.00;;;18.10;99.90;;;;;;12430288;28;20058;-35
2022/07/27 12:02:28;;;;;;;3.65;0.85;;;18.40;99.90;;;;;;12435620;28;20054;-39
2022/07/27 12:08:30;;;;;;;3.33;1.05;;;18.70;99.90;;;;;;12437132;28;20409;-35
2022/07/27 12:14:37;;;;;;;4.03;0.90;;;18.50;99.90;;;;;;12437325;28;20182;-35
2022/07/27 12:20:39;;;;;;;4.53;0.90;;;18.90;99.90;;;;;;12430770;28;20045;-39
2022/07/27 12:26:41;;;;;;;3.05;0.88;;;19.40;99.90;;;;;;12426991;28;20065;-39
2022/07/27 12:32:44;;;;;;;4.07;0.93;;;19.80;99.90;;;;;;12420438;28;20128;-35
2022/07/27 12:38:49;;;;;;;5.93;1.00;;;20.30;99.90;;;;;;12423010;28;20046;-35
2022/07/27 12:44:53;;;;;;;5.30;0.80;;;20.20;99.90;;;;;;12432129;28;20050;-40
2022/07/27 12:51:03;;;;;;;3.92;0.63;;;20.40;99.90;;;;;;12429245;28;20054;-39
2022/07/27 12:57:04;;;;;;;3.25;0.60;;;20.30;99.90;;;;;;12429149;28;20166;-35
2022/07/27 13:03:07;;;;;;;2.60;0.50;;;19.90;99.90;;;;;;12398782;28;20092;-39
2022/07/27 13:09:08;;;;;;;1.65;0.63;;;20.40;99.90;;;;;;12423419;28;20054;-35
2022/07/27 13:15:12;;;;;;;3.33;0.77;;;20.40;99.90;;;;;;12407627;28;20565;-40
2022/07/27 13:21:13;;;;;;;2.47;0.68;;;20.80;99.90;;;;;;12416311;28;20057;-39
2022/07/27 13:27:15;;;;;;;3.22;0.77;;;20.30;99.90;;;;;;12422340;28;20112;-39
2022/07/27 13:33:17;;;;;;;4.05;0.70;;;19.90;99.90;;;;;;12407281;28;20405;-39
2022/07/27 13:39:19;;;;;;;10.40;1.27;;;19.60;99.90;;;;;;12408498;28;20049;-35
2022/07/27 13:45:21;;;;;;;11.35;1.17;;;19.50;99.90;;;;;;12427441;28;20122;-39
2022/07/27 13:51:23;;;;;;;7.90;1.15;;;19.60;99.90;;;;;;12426056;28;20050;-39
2022/07/27 13:57:25;;;;;;;3.83;1.15;;;20.40;99.90;;;;;;12416603;28;20152;-40
2022/07/27 14:03:26;;;;;;;4.45;0.88;;;21.00;99.90;;;;;;12420192;28;20057;-40
2022/07/27 14:15:51;;;;;;;8.68;1.50;;;19.90;99.90;;;;;;12423327;28;20403;-35
2022/07/27 14:21:55;;;;;;;3.47;0.80;;;20.30;99.90;;;;;;12429074;28;20141;-39
2022/07/27 14:27:59;;;;;;;3.35;0.90;;;20.10;99.90;;;;;;12428385;28;20057;-35
2022/07/27 14:34:00;;;;;;;4.28;1.13;;;19.40;99.90;;;;;;12411841;28;20103;-40
2022/07/27 14:40:04;;;;;;;1.58;0.55;;;19.40;99.90;;;;;;12413599;28;20472;-35
2022/07/27 14:46:07;;;;;;;4.97;1.20;;;19.30;99.90;;;;;;12428303;28;20054;-40
2022/07/27 14:52:12;;;;;;;4.90;1.02;;;19.10;99.90;;;;;;12428284;28;20398;-35
2022/07/27 14:58:14;;;;;;;5.32;1.38;;;19.10;99.90;;;;;;12428762;28;20091;-39
2022/07/27 15:04:15;;;;;;;5.53;0.90;;;19.10;99.90;;;;;;12419257;28;20046;-39
2022/07/27 15:10:19;;;;;;;7.38;1.13;;;19.00;99.90;;;;;;12421704;28;20112;-35
2022/07/27 15:16:21;;;;;;;5.47;0.98;;;18.80;99.90;;;;;;12417017;28;20069;-35
2022/07/27 15:22:25;;;;;;;7.10;1.08;;;18.90;99.90;;;;;;12429150;28;20046;-35
2022/07/27 15:28:26;;;;;;;4.25;0.93;;;18.80;99.90;;;;;;12425867;28;20190;-34
2022/07/27 15:34:28;;;;;;;3.45;1.20;;;18.80;99.90;;;;;;12420035;28;20046;-35
2022/07/27 15:40:36;;;;;;;5.80;1.10;;;18.80;99.90;;;;;;12413643;28;20054;-39
2022/07/27 15:46:38;;;;;;;5.93;1.17;;;18.80;99.90;;;;;;12423572;28;20078;-35
2022/07/27 15:52:40;;;;;;;5.47;1.33;;;18.80;99.90;;;;;;12414684;28;20050;-34
2022/07/27 15:58:42;;;;;;;2.83;0.90;;;18.80;99.90;;;;;;12414443;28;20049;-35
2022/07/27 16:04:43;;;;;;;7.20;1.00;;;18.70;99.90;;;;;;12430061;28;20048;-40
2022/07/27 16:10:47;;;;;;;3.83;0.95;;;18.70;99.90;;;;;;12436428;28;20072;-35
2022/07/27 16:16:50;;;;;;;4.10;0.80;;;18.50;99.90;;;;;;12434692;28;20398;-35
2022/07/27 16:22:52;;;;;;;7.15;1.10;;;18.50;99.90;;;;;;12430232;28;20567;-41
2022/07/27 16:28:55;;;;;;;5.55;1.20;;;18.50;99.90;;;;;;12433749;28;20115;-40
2022/07/27 16:34:58;;;;;;;6.03;1.48;;;18.50;99.90;;;;;;12418764;28;20053;-39
2022/07/27 16:41:04;;;;;;;7.78;1.27;;;18.40;99.90;;;;;;12429008;28;20050;-40
2022/07/27 16:47:08;;;;;;;5.78;1.58;;;18.50;99.90;;;;;;12416159;28;20057;-39
2022/07/27 16:53:10;;;;;;;6.57;1.60;;;18.40;99.90;;;;;;12434907;28;20525;-40
2022/07/27 16:59:11;;;;;;;5.60;1.38;;;18.50;99.90;;;;;;12436436;28;20102;-40
2022/07/27 17:05:14;;;;;;;3.25;1.17;;;18.50;99.90;;;;;;12423851;28;20062;-35
2022/07/27 17:11:18;;;;;;;5.53;1.30;;;18.50;99.90;;;;;;12413958;28;20104;-42
2022/07/27 17:17:22;;;;;;;7.82;1.20;;;18.50;99.90;;;;;;12428137;28;20085;-39
2022/07/27 17:23:24;;;;;;;3.00;1.00;;;18.50;99.90;;;;;;12438345;28;20482;-36
2022/07/27 17:29:26;;;;;;;6.55;1.10;;;18.40;99.90;;;;;;12401037;28;20066;-35
2022/07/27 17:35:27;;;;;;;5.85;1.20;;;18.40;99.90;;;;;;12426810;28;20132;-40
2022/07/27 17:41:30;;;;;;;2.13;0.90;;;18.40;99.90;;;;;;12421549;28;20104;-38
2022/07/27 17:47:32;;;;;;;3.63;1.00;;;18.20;99.90;;;;;;12402508;28;20081;-39
2022/07/27 17:53:34;;;;;;;3.65;0.80;;;18.20;99.90;;;;;;12423235;28;20042;-40
2022/07/27 17:59:36;;;;;;;4.97;1.10;;;18.10;99.90;;;;;;12408815;28;20402;-35
2022/07/27 18:05:39;;;;;;;1.92;0.68;;;18.20;99.90;;;;;;12399840;28;20058;-39
2022/07/27 18:11:41;;;;;;;6.80;1.05;;;18.10;99.90;;;;;;12414432;28;20429;-39
2022/07/27 18:17:43;;;;;;;6.10;1.25;;;17.90;99.90;;;;;;12419713;28;20056;-39
2022/07/27 18:23:45;;;;;;;2.95;0.80;;;17.90;99.90;;;;;;12429782;28;20097;-39
2022/07/27 18:29:47;;;;;;;3.30;0.80;;;17.90;99.90;;;;;;12427027;28;20145;-40
2022/07/27 18:35:49;;;;;;;2.97;0.85;;;17.90;99.90;;;;;;12423686;28;20220;-40
2022/07/27 18:41:51;;;;;;;3.97;0.98;;;17.80;99.90;;;;;;12428632;28;20483;-39
2022/07/27 18:47:53;;;;;;;4.90;1.40;;;17.80;99.90;;;;;;12425047;28;20058;-39
2022/07/27 18:53:55;;;;;;;3.45;0.80;;;17.70;99.90;;;;;;12412737;28;20107;-39
2022/07/27 18:59:56;;;;;;;4.80;0.93;;;17.70;99.90;;;;;;12430098;28;20452;-35
2022/07/27 19:05:58;;;;;;;5.72;0.80;;;17.60;99.90;;;;;;12414065;28;20038;-39
2022/07/27 19:12:00;;;;;;;2.38;0.70;;;17.60;99.90;;;;;;12412566;28;20054;-35
2022/07/27 19:18:09;;;;;;;4.28;1.08;;;17.50;99.90;;;;;;12420521;28;20054;-40
2022/07/27 19:24:12;;;;;;;2.53;0.80;;;17.50;99.90;;;;;;12419473;28;20564;-35
2022/07/27 19:30:14;;;;;;;4.75;0.98;;;17.40;99.90;;;;;;12419617;28;20099;-39
2022/07/27 19:36:17;;;;;;;4.57;0.88;;;17.40;99.90;;;;;;12414604;28;20065;-35
2022/07/27 19:42:19;;;;;;;3.05;1.08;;;17.30;99.90;;;;;;12400143;28;20100;-35
2022/07/27 19:48:22;;;;;;;4.72;0.95;;;17.30;99.90;;;;;;12420251;28;20119;-39
2022/07/27 19:54:26;;;;;;;3.70;0.70;;;17.20;99.90;;;;;;12420998;28;20145;-40
2022/07/27 20:00:29;;;;;;;2.40;0.70;;;17.30;99.90;;;;;;12408966;28;20065;-41
2022/07/27 20:06:31;;;;;;;6.45;1.10;;;17.20;99.90;;;;;;12436650;28;20054;-39
2022/07/27 20:12:33;;;;;;;2.75;0.88;;;17.10;99.90;;;;;;12420174;28;20046;-35
2022/07/27 20:18:36;;;;;;;4.80;1.10;;;16.90;99.90;;;;;;12420918;28;20058;-35
2022/07/27 20:24:38;;;;;;;2.77;1.00;;;16.90;99.90;;;;;;12425823;28;20053;-40
2022/07/27 20:30:39;;;;;;;5.00;1.25;;;16.70;99.90;;;;;;12429688;28;20053;-35
2022/07/27 20:36:42;;;;;;;5.93;0.90;;;16.80;99.90;;;;;;12430968;28;20506;-39
2022/07/27 20:42:43;;;;;;;5.32;1.00;;;16.80;99.90;;;;;;12418962;28;20111;-35
2022/07/27 20:48:45;;;;;;;4.40;0.85;;;16.70;99.90;;;;;;12427300;28;20050;-35
2022/07/27 20:54:47;;;;;;;8.10;1.20;;;16.70;99.90;;;;;;12412244;28;20049;-38
2022/07/27 21:00:49;;;;;;;7.70;1.30;;;16.60;99.90;;;;;;12410255;28;20054;-39
2022/07/27 21:06:52;;;;;;;4.95;1.00;;;16.40;99.90;;;;;;12419540;28;20046;-39
2022/07/27 21:12:55;;;;;;;5.07;1.13;;;16.40;99.90;;;;;;12421693;28;20061;-35
2022/07/27 21:18:56;;;;;;;5.60;1.15;;;16.20;99.90;;;;;;12429820;28;20054;-39
2022/07/27 21:24:58;;;;;;;6.32;1.20;;;16.10;99.90;;;;;;12414405;28;20057;-35
2022/07/27 21:31:01;;;;;;;6.60;1.25;;;16.00;99.90;;;;;;12413681;28;20050;-40
2022/07/27 21:37:03;;;;;;;5.53;1.60;;;16.00;99.90;;;;;;12429519;28;20061;-40
2022/07/27 21:43:04;;;;;;;4.88;1.27;;;15.80;99.90;;;;;;12430202;28;20054;-41
2022/07/27 21:49:06;;;;;;;4.65;1.08;;;15.80;99.90;;;;;;12419803;28;20117;-39
2022/07/27 21:55:09;;;;;;;3.58;1.05;;;15.80;99.90;;;;;;12420256;28;20054;-35
2022/07/27 22:01:12;;;;;;;7.47;1.40;;;15.70;99.90;;;;;;12410317;28;20189;-35
2022/07/27 22:07:15;;;;;;;3.67;1.17;;;15.60;99.90;;;;;;12412999;28;20061;-42
2022/07/27 22:13:20;;;;;;;2.92;1.35;;;15.60;99.90;;;;;;12422971;28;20409;-35
2022/07/27 22:19:22;;;;;;;5.47;1.02;;;15.50;99.90;;;;;;12425643;28;20062;-35
2022/07/27 22:25:24;;;;;;;5.15;1.00;;;15.40;99.90;;;;;;12410102;28;20437;-35
2022/07/27 22:31:25;;;;;;;3.75;0.82;;;15.30;99.90;;;;;;12431220;28;20050;-39
2022/07/27 22:37:27;;;;;;;5.60;1.10;;;15.20;99.90;;;;;;12435073;28;20461;-35
2022/07/27 22:43:29;;;;;;;3.80;0.85;;;15.10;99.90;;;;;;12416625;28;20495;-40
2022/07/27 22:49:33;;;;;;;6.47;1.15;;;15.10;99.90;;;;;;12421052;28;20439;-41
2022/07/27 22:55:37;;;;;;;3.63;1.00;;;15.10;99.90;;;;;;12433098;28;20100;-40
2022/07/27 23:01:39;;;;;;;5.35;1.02;;;15.00;99.90;;;;;;12411432;28;20050;-40
2022/07/27 23:07:48;;;;;;;5.13;1.15;;;14.90;99.90;;;;;;12418529;28;20057;-35
2022/07/27 23:13:49;;;;;;;3.28;0.88;;;14.90;99.90;;;;;;12429925;28;20049;-35
2022/07/27 23:19:51;;;;;;;4.40;1.10;;;14.90;99.90;;;;;;12434070;28;20116;-35
2022/07/27 23:25:53;;;;;;;5.72;0.90;;;14.90;99.90;;;;;;12423046;28;20043;-35
2022/07/27 23:31:55;;;;;;;5.82;1.10;;;14.90;99.90;;;;;;12427428;28;20386;-35
2022/07/27 23:37:58;;;;;;;4.60;0.98;;;14.80;99.90;;;;;;12426376;28;20137;-35
2022/07/27 23:43:59;;;;;;;7.20;1.10;;;14.70;99.90;;;;;;12420810;28;20521;-36
2022/07/27 23:50:02;;;;;;;2.20;0.90;;;14.60;99.90;;;;;;12409937;28;20054;-40
2022/07/27 23:56:03;;;;;;;7.55;1.00;;;14.50;99.90;;;;;;12428463;28;20111;-40
